Time;durP1;ratioP1;P1;durP2;ratioP2;P2;SDS_P1;SDS_P2;PMS_P1;PMS_P2;Temp;Humidity;BMP_temperature;BMP_pressure;BME280_temperature;BME280_humidity;BME280_pressure;Samples;Min_cycle;Max_cycle;Signal;HPM_P1;HPM_P2
2021/05/14 00:01:23;;;;;;;2.53;2.33;;;12.10;77.00;;;;;;5054734;28;20573;-88
2021/05/14 00:03:49;;;;;;;2.87;2.47;;;12.10;77.40;;;;;;5054639;28;20194;-89
2021/05/14 00:06:15;;;;;;;2.87;2.30;;;12.10;77.50;;;;;;5051268;28;20196;-88
2021/05/14 00:08:41;;;;;;;2.73;2.53;;;12.10;76.60;;;;;;5040592;28;20212;-89
2021/05/14 00:11:06;;;;;;;2.50;2.30;;;11.90;76.90;;;;;;5054001;28;20215;-88
2021/05/14 00:13:32;;;;;;;2.60;2.40;;;11.90;77.90;;;;;;5039574;28;20237;-89
2021/05/14 00:15:58;;;;;;;2.57;2.37;;;11.90;77.80;;;;;;5021319;28;20180;-90
2021/05/14 00:18:24;;;;;;;2.70;2.50;;;11.80;77.90;;;;;;5038224;28;20188;-90
2021/05/14 00:20:50;;;;;;;2.93;2.70;;;11.90;77.70;;;;;;5030194;28;20203;-89
2021/05/14 00:23:16;;;;;;;2.27;2.10;;;11.80;77.60;;;;;;5019219;28;20226;-89
2021/05/14 00:25:42;;;;;;;3.10;2.30;;;11.80;78.10;;;;;;5017227;28;20189;-89
2021/05/14 00:28:08;;;;;;;5.07;2.80;;;11.80;78.00;;;;;;5017609;28;20616;-89
2021/05/14 00:30:34;;;;;;;2.60;2.40;;;11.80;78.10;;;;;;5017449;28;21036;-89
2021/05/14 00:33:00;;;;;;;5.63;2.63;;;11.80;78.30;;;;;;5018250;28;20181;-89
2021/05/14 00:35:25;;;;;;;2.80;2.50;;;11.80;78.30;;;;;;5017297;28;20242;-89
2021/05/14 00:37:52;;;;;;;2.73;2.50;;;11.90;79.10;;;;;;5018197;28;20238;-90
2021/05/14 00:40:17;;;;;;;2.87;2.60;;;11.80;78.60;;;;;;5017109;28;20270;-89
2021/05/14 00:42:43;;;;;;;2.20;2.10;;;11.80;78.70;;;;;;5017967;28;20251;-89
2021/05/14 00:45:09;;;;;;;3.97;2.70;;;11.90;78.30;;;;;;5018907;28;20208;-89
2021/05/14 00:47:36;;;;;;;2.77;2.57;;;11.80;78.10;;;;;;5037688;28;20764;-89
2021/05/14 00:50:03;;;;;;;3.27;2.53;;;11.80;78.40;;;;;;5036302;28;20559;-89
2021/05/14 00:52:28;;;;;;;2.57;2.37;;;11.80;78.60;;;;;;5038667;28;20191;-89
2021/05/14 00:54:55;;;;;;;3.03;2.83;;;11.90;78.50;;;;;;5049942;28;20188;-90
2021/05/14 00:57:22;;;;;;;2.80;2.57;;;11.90;78.10;;;;;;5049679;28;20238;-90
2021/05/14 00:59:48;;;;;;;2.70;2.40;;;11.90;77.40;;;;;;5021901;28;20220;-89
2021/05/14 01:02:15;;;;;;;2.93;2.67;;;11.90;77.50;;;;;;5017695;28;20180;-89
2021/05/14 01:04:42;;;;;;;3.07;2.50;;;11.80;78.00;;;;;;5018339;28;20201;-89
2021/05/14 01:07:09;;;;;;;2.47;2.27;;;11.80;78.60;;;;;;5017783;28;20180;-89
2021/05/14 01:09:35;;;;;;;3.83;2.67;;;11.80;78.80;;;;;;5017613;28;20197;-89
2021/05/14 01:12:01;;;;;;;2.77;2.57;;;11.80;78.50;;;;;;5017609;28;20185;-89
2021/05/14 01:14:27;;;;;;;2.60;2.40;;;11.80;78.60;;;;;;5018644;28;20185;-89
2021/05/14 01:16:53;;;;;;;2.40;2.20;;;11.80;78.40;;;;;;5016529;28;20233;-89
2021/05/14 01:19:19;;;;;;;2.50;2.30;;;11.90;78.10;;;;;;5016988;28;20316;-89
2021/05/14 01:21:44;;;;;;;2.40;2.20;;;11.90;77.90;;;;;;5016608;28;20746;-88
2021/05/14 01:24:10;;;;;;;2.70;2.50;;;12.00;77.60;;;;;;5017101;28;20272;-89
2021/05/14 01:26:36;;;;;;;3.70;2.50;;;12.00;76.90;;;;;;5016331;28;20184;-89
2021/05/14 01:29:04;;;;;;;4.60;2.70;;;11.90;77.20;;;;;;5017680;28;20308;-89
2021/05/14 01:31:30;;;;;;;2.97;2.77;;;11.90;77.70;;;;;;5018282;28;20223;-89
2021/05/14 01:33:56;;;;;;;2.70;2.50;;;11.80;78.40;;;;;;5017310;28;20181;-89
2021/05/14 01:36:21;;;;;;;2.50;2.20;;;11.80;78.60;;;;;;5028287;28;20709;-89
2021/05/14 01:38:47;;;;;;;2.53;2.33;;;11.70;78.80;;;;;;5028822;28;20250;-89
2021/05/14 01:41:13;;;;;;;2.70;2.50;;;11.70;78.60;;;;;;5015171;28;20262;-89
2021/05/14 01:43:39;;;;;;;2.80;2.50;;;11.70;79.50;;;;;;5016761;28;20195;-89
2021/05/14 01:46:05;;;;;;;3.10;2.60;;;11.70;79.00;;;;;;5037570;28;20187;-90
2021/05/14 01:48:32;;;;;;;3.23;2.60;;;11.70;78.20;;;;;;5027758;28;20223;-89
2021/05/14 01:51:04;;;;;;;2.50;2.30;;;11.60;79.00;;;;;;5020578;28;20223;-89
2021/05/14 01:53:29;;;;;;;2.97;2.37;;;11.60;79.20;;;;;;5020807;28;20255;-89
2021/05/14 01:55:56;;;;;;;4.50;3.10;;;11.60;79.00;;;;;;5020543;28;20181;-89
2021/05/14 01:58:22;;;;;;;2.80;2.60;;;11.60;79.00;;;;;;5021051;28;20215;-89
2021/05/14 02:00:47;;;;;;;3.53;2.80;;;11.60;79.00;;;;;;5036496;28;20295;-90
2021/05/14 02:03:13;;;;;;;2.73;2.53;;;11.50;79.20;;;;;;5041734;28;20577;-89
2021/05/14 02:05:39;;;;;;;3.73;2.27;;;11.50;78.90;;;;;;5040429;28;20199;-89
2021/05/14 02:08:04;;;;;;;2.90;2.30;;;11.50;79.30;;;;;;5040674;28;20219;-89
2021/05/14 02:10:30;;;;;;;2.60;2.33;;;11.50;79.30;;;;;;5041207;28;20205;-89
2021/05/14 02:12:56;;;;;;;3.17;2.77;;;11.50;79.20;;;;;;5040562;28;20262;-89
2021/05/14 02:15:21;;;;;;;2.60;2.40;;;11.50;79.10;;;;;;5033400;28;20189;-89
2021/05/14 02:17:47;;;;;;;3.93;2.80;;;11.50;79.10;;;;;;5021079;28;20193;-89
2021/05/14 02:20:13;;;;;;;3.30;2.27;;;11.50;79.30;;;;;;5020890;28;20709;-89
2021/05/14 02:22:40;;;;;;;2.60;2.40;;;11.40;79.20;;;;;;5020773;28;20196;-89
2021/05/14 02:25:07;;;;;;;3.20;2.90;;;11.40;78.80;;;;;;5019225;28;20217;-89
2021/05/14 02:27:33;;;;;;;2.90;2.70;;;11.50;78.90;;;;;;5021137;28;20270;-89
2021/05/14 02:30:00;;;;;;;3.00;2.70;;;11.50;78.70;;;;;;5020385;28;20220;-89
2021/05/14 02:32:26;;;;;;;2.90;2.70;;;11.40;79.00;;;;;;5032989;28;20192;-89
2021/05/14 02:34:51;;;;;;;3.87;2.50;;;11.30;79.20;;;;;;5028959;28;20251;-89
2021/05/14 02:37:17;;;;;;;2.87;2.30;;;11.20;79.20;;;;;;4999851;28;20193;-89
2021/05/14 02:39:43;;;;;;;4.70;2.63;;;11.10;79.50;;;;;;5014117;28;20211;-89
2021/05/14 02:42:08;;;;;;;4.30;2.70;;;11.20;80.00;;;;;;5019174;28;20271;-89
2021/05/14 02:44:35;;;;;;;2.97;2.53;;;11.20;79.80;;;;;;5021891;28;20208;-89
2021/05/14 02:47:01;;;;;;;4.93;2.40;;;11.20;79.50;;;;;;5023528;28;20176;-89
2021/05/14 02:49:27;;;;;;;2.80;2.60;;;11.20;79.70;;;;;;5048804;28;20249;-90
2021/05/14 02:51:52;;;;;;;2.73;2.53;;;11.10;79.80;;;;;;5056119;28;20199;-90
2021/05/14 02:54:18;;;;;;;3.53;2.60;;;11.20;79.50;;;;;;5056306;28;20194;-90
2021/05/14 02:56:44;;;;;;;3.53;2.20;;;11.20;79.30;;;;;;5050640;28;20199;-89
2021/05/14 02:59:10;;;;;;;3.83;2.30;;;11.20;79.00;;;;;;5041205;28;20203;-89
2021/05/14 03:01:35;;;;;;;2.80;2.50;;;11.20;78.60;;;;;;5040940;28;20192;-89
2021/05/14 03:04:04;;;;;;;2.53;2.33;;;11.20;78.90;;;;;;5039108;28;20222;-89
2021/05/14 03:06:29;;;;;;;2.97;2.67;;;11.20;78.90;;;;;;5039919;28;20180;-90
2021/05/14 03:08:55;;;;;;;2.57;2.37;;;11.10;78.90;;;;;;5039556;28;20220;-89
2021/05/14 03:11:21;;;;;;;4.17;2.33;;;11.10;78.50;;;;;;5040357;28;20191;-89
2021/05/14 03:13:46;;;;;;;2.57;2.37;;;10.90;79.10;;;;;;5041256;28;20748;-89
2021/05/14 03:16:12;;;;;;;2.37;2.17;;;10.90;79.30;;;;;;5039451;28;20183;-89
2021/05/14 03:18:38;;;;;;;2.53;2.30;;;10.90;79.30;;;;;;5037943;28;20222;-89
2021/05/14 03:21:03;;;;;;;4.00;2.40;;;10.80;79.70;;;;;;5037744;28;20217;-89
2021/05/14 03:23:29;;;;;;;3.27;2.50;;;10.80;80.70;;;;;;5040471;28;20194;-89
2021/05/14 03:25:55;;;;;;;2.63;2.43;;;10.80;80.10;;;;;;5040151;28;20261;-89
2021/05/14 03:28:20;;;;;;;2.17;2.07;;;10.80;79.80;;;;;;5030266;28;20295;-89
2021/05/14 03:30:46;;;;;;;2.50;2.30;;;10.80;80.90;;;;;;5021317;28;20225;-89
2021/05/14 03:33:19;;;;;;;3.80;2.50;;;10.70;79.90;;;;;;5020865;28;20190;-89
2021/05/14 03:35:46;;;;;;;2.93;2.40;;;10.70;79.00;;;;;;5032682;28;20205;-90
2021/05/14 03:38:11;;;;;;;4.57;2.57;;;10.60;80.00;;;;;;5036256;28;20183;-89
2021/05/14 03:40:39;;;;;;;5.77;2.90;;;10.50;79.90;;;;;;5019215;28;20206;-90
2021/05/14 03:43:05;;;;;;;4.90;2.43;;;10.60;79.90;;;;;;5019895;28;20175;-89
2021/05/14 03:45:32;;;;;;;2.80;2.43;;;10.50;80.10;;;;;;5024099;28;20198;-89
2021/05/14 03:47:58;;;;;;;2.40;2.20;;;10.50;79.00;;;;;;5019767;28;20218;-89
2021/05/14 03:50:30;;;;;;;2.53;2.33;;;10.40;80.40;;;;;;5020134;28;20609;-89
2021/05/14 03:52:56;;;;;;;2.63;2.43;;;10.40;80.60;;;;;;5018257;28;20187;-89
2021/05/14 03:55:22;;;;;;;2.67;2.33;;;10.50;80.60;;;;;;5020420;28;20221;-89
2021/05/14 03:57:48;;;;;;;2.23;2.13;;;10.50;79.80;;;;;;5022481;28;20201;-89
2021/05/14 04:00:14;;;;;;;2.93;2.40;;;10.50;79.40;;;;;;5020014;28;20227;-89
2021/05/14 04:02:40;;;;;;;3.60;2.60;;;10.50;80.00;;;;;;5016557;28;20290;-89
2021/05/14 04:05:06;;;;;;;2.30;2.20;;;10.40;79.90;;;;;;5017219;28;20209;-89
2021/05/14 04:07:32;;;;;;;3.00;2.50;;;10.40;79.80;;;;;;5027435;28;20244;-89
2021/05/14 04:10:12;;;;;;;2.87;2.60;;;10.50;80.30;;;;;;5037997;28;20240;-89
2021/05/14 04:15:06;;;;;;;3.33;2.60;;;10.60;79.60;;;;;;5036667;28;20226;-89
2021/05/14 04:17:31;;;;;;;2.97;2.40;;;10.60;79.50;;;;;;5035562;28;20757;-89
2021/05/14 04:19:59;;;;;;;2.17;2.00;;;10.50;78.90;;;;;;5035693;28;20211;-89
2021/05/14 04:22:28;;;;;;;2.47;2.27;;;10.50;78.90;;;;;;5029085;28;20267;-89
2021/05/14 04:24:53;;;;;;;2.53;2.33;;;10.50;79.20;;;;;;5033345;28;20190;-89
2021/05/14 04:27:20;;;;;;;2.67;2.47;;;10.50;79.40;;;;;;5017550;28;20263;-89
2021/05/14 04:29:46;;;;;;;2.60;2.40;;;10.40;79.60;;;;;;5018393;28;20202;-89
2021/05/14 04:32:12;;;;;;;2.80;2.50;;;10.40;79.40;;;;;;5018513;28;20179;-89
2021/05/14 04:34:38;;;;;;;2.70;2.50;;;10.40;79.50;;;;;;5018461;28;20254;-89
2021/05/14 04:37:05;;;;;;;2.53;2.20;;;10.40;79.70;;;;;;5019108;28;20178;-88
2021/05/14 04:39:31;;;;;;;2.50;2.27;;;10.40;79.80;;;;;;5019491;28;20221;-87
2021/05/14 04:41:57;;;;;;;2.70;2.50;;;10.50;79.80;;;;;;5017342;28;20196;-87
2021/05/14 04:44:24;;;;;;;2.77;2.50;;;10.50;79.80;;;;;;5021009;28;20226;-88
2021/05/14 04:46:51;;;;;;;3.67;2.43;;;10.50;80.10;;;;;;5035638;28;20180;-89
2021/05/14 04:49:16;;;;;;;2.97;2.70;;;10.60;80.00;;;;;;5032854;28;20241;-87
2021/05/14 04:51:42;;;;;;;2.53;2.33;;;10.60;79.80;;;;;;5017998;28;20188;-87
2021/05/14 04:54:08;;;;;;;2.97;2.70;;;10.60;79.70;;;;;;5017289;28;20707;-90
2021/05/14 04:56:33;;;;;;;2.93;2.50;;;10.60;79.70;;;;;;5029029;28;20191;-90
2021/05/14 04:58:59;;;;;;;3.50;2.63;;;10.70;80.50;;;;;;5035610;28;20264;-90
2021/05/14 05:01:24;;;;;;;2.83;2.63;;;10.60;80.70;;;;;;5008690;28;20221;-87
2021/05/14 05:03:53;;;;;;;3.00;2.70;;;10.50;81.60;;;;;;5016572;28;20194;-89
2021/05/14 05:06:19;;;;;;;3.30;3.00;;;10.40;82.70;;;;;;5016682;28;20194;-88
2021/05/14 05:08:45;;;;;;;3.30;2.73;;;10.40;83.40;;;;;;5016477;28;20683;-88
2021/05/14 05:11:11;;;;;;;5.73;3.00;;;10.30;84.60;;;;;;5026042;28;20217;-86
2021/05/14 05:13:37;;;;;;;3.20;3.00;;;10.10;86.60;;;;;;5035510;28;20194;-87
2021/05/14 05:16:03;;;;;;;4.93;3.20;;;9.80;88.30;;;;;;5036330;28;20264;-87
2021/05/14 05:18:29;;;;;;;3.87;3.10;;;9.90;88.30;;;;;;5034810;28;20637;-87
2021/05/14 05:20:55;;;;;;;4.03;2.90;;;10.00;88.00;;;;;;5036795;28;20215;-88
2021/05/14 05:23:21;;;;;;;2.73;2.53;;;10.20;87.60;;;;;;5022138;28;20248;-87
2021/05/14 05:25:47;;;;;;;5.03;2.90;;;10.20;87.90;;;;;;5016960;28;20197;-88
2021/05/14 05:28:13;;;;;;;3.63;3.00;;;10.20;88.40;;;;;;5017886;28;20206;-88
2021/05/14 05:30:39;;;;;;;5.27;2.70;;;10.40;88.00;;;;;;5017732;28;20205;-88
2021/05/14 05:33:05;;;;;;;3.07;2.80;;;10.30;87.50;;;;;;5015196;28;20185;-87
2021/05/14 05:35:31;;;;;;;2.97;2.70;;;10.50;87.30;;;;;;5016523;28;20193;-87
2021/05/14 05:37:56;;;;;;;3.20;2.67;;;10.60;87.60;;;;;;5034124;28;20557;-87
2021/05/14 05:40:22;;;;;;;3.87;2.80;;;10.70;87.00;;;;;;5033444;28;20206;-87
2021/05/14 05:42:48;;;;;;;3.80;2.97;;;10.70;87.10;;;;;;5033986;28;20189;-87
2021/05/14 05:45:14;;;;;;;4.83;3.10;;;10.50;88.10;;;;;;5035329;28;20192;-87
2021/05/14 05:47:40;;;;;;;4.57;3.37;;;10.30;88.10;;;;;;5034275;28;20232;-87
2021/05/14 05:50:06;;;;;;;3.23;2.87;;;10.30;88.60;;;;;;5035465;28;20208;-88
2021/05/14 05:52:32;;;;;;;3.90;2.97;;;10.40;88.90;;;;;;5022309;28;20196;-87
2021/05/14 05:54:58;;;;;;;4.63;3.23;;;10.50;87.60;;;;;;5014397;28;20177;-88
2021/05/14 05:57:24;;;;;;;3.33;2.73;;;10.60;88.60;;;;;;5014671;28;20212;-88
2021/05/14 05:59:49;;;;;;;3.20;2.63;;;10.60;87.00;;;;;;5014998;28;20674;-88
2021/05/14 06:02:15;;;;;;;4.60;2.53;;;10.70;87.50;;;;;;5027842;28;20189;-89
2021/05/14 06:04:41;;;;;;;3.07;2.77;;;10.60;87.70;;;;;;5017907;28;20189;-88
2021/05/14 06:07:06;;;;;;;5.13;2.93;;;10.50;88.80;;;;;;5031116;28;20239;-89
2021/05/14 06:09:32;;;;;;;4.30;2.57;;;10.50;88.30;;;;;;5027050;28;20218;-88
2021/05/14 06:11:58;;;;;;;3.27;2.63;;;10.50;89.40;;;;;;5018670;28;20174;-88
2021/05/14 06:14:24;;;;;;;2.80;2.47;;;10.60;88.90;;;;;;5018530;28;20178;-88
2021/05/14 06:16:49;;;;;;;2.70;2.50;;;10.60;89.20;;;;;;5016876;28;20182;-88
2021/05/14 06:19:20;;;;;;;4.07;2.43;;;10.70;88.30;;;;;;5020245;28;20271;-88
2021/05/14 06:21:47;;;;;;;3.47;2.70;;;10.70;89.30;;;;;;5037843;28;20260;-88
2021/05/14 06:24:14;;;;;;;3.93;2.67;;;10.90;89.30;;;;;;5019900;28;20235;-88
2021/05/14 06:26:41;;;;;;;3.70;2.80;;;11.10;87.60;;;;;;5037266;28;20215;-89
2021/05/14 06:29:07;;;;;;;2.67;2.47;;;11.10;86.30;;;;;;5023097;28;20217;-87
2021/05/14 06:31:33;;;;;;;3.00;2.80;;;11.10;86.00;;;;;;5024356;28;20213;-88
2021/05/14 06:33:59;;;;;;;3.50;2.60;;;11.00;87.90;;;;;;5019987;28;20181;-88
2021/05/14 06:36:37;;;;;;;3.30;2.90;;;11.00;89.20;;;;;;5016438;28;20859;-88
2021/05/14 06:39:03;;;;;;;3.57;2.93;;;11.20;88.90;;;;;;5017785;28;20684;-88
2021/05/14 06:41:29;;;;;;;3.10;2.80;;;11.30;87.90;;;;;;5021994;28;20189;-87
2021/05/14 06:43:57;;;;;;;3.30;2.43;;;11.40;85.90;;;;;;5022625;28;20196;-87
2021/05/14 06:46:22;;;;;;;6.33;2.73;;;11.40;86.70;;;;;;5021836;28;20457;-88
2021/05/14 06:48:49;;;;;;;2.80;2.50;;;11.50;86.30;;;;;;5029673;28;20235;-87
2021/05/14 06:51:14;;;;;;;2.87;2.20;;;11.50;85.80;;;;;;5022931;28;20205;-86
2021/05/14 06:53:40;;;;;;;2.70;2.50;;;11.70;86.40;;;;;;5030375;28;20190;-87
2021/05/14 06:56:06;;;;;;;2.50;2.30;;;11.70;86.60;;;;;;5021502;28;20177;-86
2021/05/14 06:58:32;;;;;;;2.77;2.53;;;11.80;86.50;;;;;;5017346;28;20185;-87
2021/05/14 07:00:58;;;;;;;6.20;2.70;;;11.90;84.70;;;;;;5016677;28;20625;-86
2021/05/14 07:03:24;;;;;;;3.10;2.50;;;12.20;83.90;;;;;;5015282;28;20225;-87
2021/05/14 07:05:49;;;;;;;2.33;2.13;;;12.20;83.50;;;;;;5015007;28;20192;-87
2021/05/14 07:08:15;;;;;;;2.40;2.20;;;12.40;83.50;;;;;;5014408;28;20214;-87
2021/05/14 07:10:41;;;;;;;2.07;1.97;;;12.50;81.40;;;;;;5014283;28;20207;-88
2021/05/14 07:13:06;;;;;;;2.37;2.17;;;12.60;82.60;;;;;;5014610;28;20187;-87
2021/05/14 07:15:32;;;;;;;2.70;2.30;;;12.70;81.40;;;;;;5030391;28;20191;-88
2021/05/14 07:18:01;;;;;;;2.63;2.00;;;12.80;80.00;;;;;;5009094;28;20578;-87
2021/05/14 07:20:27;;;;;;;1.87;1.77;;;12.90;78.90;;;;;;5014990;28;20212;-88
2021/05/14 07:22:54;;;;;;;3.33;2.13;;;13.00;79.00;;;;;;5014571;28;20203;-89
2021/05/14 07:25:19;;;;;;;2.97;1.97;;;13.10;79.00;;;;;;5020845;28;20199;-88
2021/05/14 07:27:46;;;;;;;1.80;1.70;;;13.10;79.60;;;;;;5018346;28;20208;-88
2021/05/14 07:30:13;;;;;;;1.87;1.73;;;13.20;77.00;;;;;;5020020;28;20197;-88
2021/05/14 07:32:39;;;;;;;1.70;1.60;;;13.40;74.40;;;;;;5017973;28;20176;-87
2021/05/14 07:35:06;;;;;;;1.77;1.67;;;13.40;73.20;;;;;;5018410;28;20204;-86
2021/05/14 07:37:32;;;;;;;1.50;1.40;;;13.50;72.60;;;;;;5039741;28;20287;-87
2021/05/14 07:39:58;;;;;;;2.17;1.50;;;13.50;73.60;;;;;;5040187;28;20200;-86
2021/05/14 07:42:24;;;;;;;1.50;1.40;;;13.50;74.00;;;;;;5040027;28;20176;-86
2021/05/14 07:44:49;;;;;;;1.73;1.63;;;13.60;73.60;;;;;;5026973;28;20277;-87
2021/05/14 07:47:15;;;;;;;2.10;1.50;;;13.80;72.50;;;;;;5018536;28;20256;-87
2021/05/14 07:49:41;;;;;;;1.67;1.50;;;13.90;70.90;;;;;;5018671;28;20677;-87
2021/05/14 07:52:08;;;;;;;1.90;1.37;;;14.00;70.30;;;;;;5018611;28;20189;-87
2021/05/14 07:54:33;;;;;;;1.53;1.40;;;14.00;68.20;;;;;;5002152;28;20185;-88
2021/05/14 07:56:59;;;;;;;2.10;1.40;;;14.00;68.10;;;;;;5019620;28;20235;-89
2021/05/14 07:59:26;;;;;;;1.50;1.40;;;13.90;71.70;;;;;;5018353;28;20232;-89
2021/05/14 08:01:52;;;;;;;1.40;1.30;;;13.70;71.70;;;;;;5018924;28;20203;-89
2021/05/14 08:04:18;;;;;;;1.87;1.77;;;13.70;70.60;;;;;;5019105;28;20816;-89
2021/05/14 08:06:43;;;;;;;1.40;1.30;;;13.80;68.50;;;;;;5019419;28;20231;-89
2021/05/14 08:09:11;;;;;;;1.40;1.30;;;14.00;69.50;;;;;;5021864;28;20212;-89
2021/05/14 08:11:37;;;;;;;1.60;1.50;;;14.10;69.70;;;;;;5019009;28;20580;-88
2021/05/14 08:14:03;;;;;;;1.70;1.30;;;14.10;70.40;;;;;;5014747;28;20197;-88
2021/05/14 08:16:28;;;;;;;1.43;1.33;;;14.10;67.10;;;;;;5017948;28;20183;-88
2021/05/14 08:18:54;;;;;;;1.70;1.40;;;14.40;68.00;;;;;;5018305;28;20191;-88
2021/05/14 08:21:20;;;;;;;1.90;1.70;;;14.60;67.20;;;;;;5018035;28;20282;-88
2021/05/14 08:23:46;;;;;;;1.43;1.30;;;14.90;67.70;;;;;;5000104;28;20187;-88
2021/05/14 08:26:13;;;;;;;13.37;11.97;;;15.00;65.20;;;;;;5015330;28;20186;-88
2021/05/14 08:28:39;;;;;;;3.27;2.60;;;15.20;66.60;;;;;;5017539;28;20271;-88
2021/05/14 08:31:05;;;;;;;1.80;1.50;;;15.20;64.10;;;;;;5020380;28;20203;-87
2021/05/14 08:33:30;;;;;;;1.80;1.70;;;15.00;62.60;;;;;;5051689;28;20186;-88
2021/05/14 08:35:56;;;;;;;1.93;1.60;;;15.10;65.10;;;;;;5029079;28;20246;-88
2021/05/14 08:38:23;;;;;;;2.07;1.63;;;15.40;64.30;;;;;;5018476;28;20189;-87
2021/05/14 08:40:49;;;;;;;1.40;1.30;;;15.40;63.60;;;;;;5014258;28;20203;-88
2021/05/14 08:43:16;;;;;;;1.80;1.40;;;15.40;64.90;;;;;;5015405;28;20695;-88
2021/05/14 08:45:43;;;;;;;1.40;1.30;;;15.50;62.50;;;;;;5013798;28;20207;-87
2021/05/14 08:48:13;;;;;;;2.93;1.80;;;15.50;63.40;;;;;;5015163;28;20225;-87
2021/05/14 08:50:41;;;;;;;1.20;1.20;;;15.00;64.90;;;;;;5013783;28;20330;-86
2021/05/14 08:53:07;;;;;;;1.30;1.20;;;15.10;61.30;;;;;;5013140;28;20720;-86
2021/05/14 08:55:33;;;;;;;1.93;1.60;;;15.20;60.60;;;;;;5014982;28;20222;-85
2021/05/14 08:57:59;;;;;;;2.23;1.50;;;15.40;62.10;;;;;;5015473;28;20189;-85
2021/05/14 09:00:26;;;;;;;1.60;1.47;;;15.70;61.00;;;;;;5013900;28;20219;-87
2021/05/14 09:02:53;;;;;;;2.73;1.40;;;16.00;62.10;;;;;;5013612;28;20186;-86
2021/05/14 09:05:20;;;;;;;1.40;1.30;;;16.20;58.80;;;;;;5012468;28;20607;-87
2021/05/14 09:07:46;;;;;;;2.57;1.40;;;16.10;58.60;;;;;;5028981;28;20211;-86
2021/05/14 09:10:12;;;;;;;2.97;1.20;;;16.20;56.50;;;;;;5016219;28;20204;-86
2021/05/14 09:12:40;;;;;;;1.20;1.20;;;16.30;56.60;;;;;;5013850;28;20217;-86
2021/05/14 09:15:34;;;;;;;1.40;1.30;;;16.40;59.20;;;;;;5013824;28;20182;-86
2021/05/14 09:18:17;;;;;;;2.67;1.70;;;16.50;59.10;;;;;;5006087;28;20280;-87
2021/05/14 09:20:59;;;;;;;1.83;1.43;;;16.50;62.30;;;;;;5014006;28;20267;-86
2021/05/14 09:23:30;;;;;;;2.17;1.40;;;17.00;56.90;;;;;;5015324;28;20185;-86
2021/05/14 09:26:12;;;;;;;2.00;1.40;;;17.10;56.20;;;;;;5018481;28;20707;-86
2021/05/14 09:28:42;;;;;;;1.47;1.37;;;17.40;54.30;;;;;;5034583;28;20193;-87
2021/05/14 09:31:22;;;;;;;1.30;1.30;;;17.30;53.10;;;;;;5020684;28;20312;-88
2021/05/14 09:33:52;;;;;;;1.87;1.50;;;17.50;54.80;;;;;;5013211;28;20189;-89
2021/05/14 09:36:23;;;;;;;1.93;1.40;;;17.50;53.10;;;;;;4995897;28;20174;-89
2021/05/14 09:38:53;;;;;;;1.73;1.50;;;16.80;57.30;;;;;;5002426;28;20197;-87
2021/05/14 09:41:23;;;;;;;1.50;1.40;;;16.70;56.90;;;;;;5011946;28;20503;-88
2021/05/14 09:43:59;;;;;;;2.50;1.47;;;16.60;56.10;;;;;;5012940;28;20173;-88
2021/05/14 09:46:38;;;;;;;1.87;1.77;;;17.00;57.20;;;;;;5013889;28;20253;-88
2021/05/14 09:49:08;;;;;;;4.50;1.80;;;17.00;56.10;;;;;;5014113;28;20253;-88
2021/05/14 09:51:34;;;;;;;2.30;1.50;;;17.00;57.10;;;;;;5015022;28;20256;-89
2021/05/14 09:54:25;;;;;;;1.93;1.50;;;17.30;55.70;;;;;;5014626;28;20549;-88
2021/05/14 09:57:20;;;;;;;2.33;1.70;;;17.40;56.70;;;;;;5014189;28;20176;-89
2021/05/14 09:59:50;;;;;;;1.63;1.53;;;17.60;57.40;;;;;;5013795;28;20213;-89
2021/05/14 10:02:30;;;;;;;2.03;1.40;;;17.60;56.50;;;;;;5025002;28;20197;-88
2021/05/14 10:04:56;;;;;;;2.00;1.87;;;17.50;56.20;;;;;;5035213;28;20401;-88
2021/05/14 10:07:27;;;;;;;1.43;1.33;;;17.60;57.50;;;;;;5035030;28;20183;-88
2021/05/14 10:10:01;;;;;;;1.80;1.70;;;17.70;56.20;;;;;;5035423;28;20576;-88
2021/05/14 10:12:27;;;;;;;1.67;1.57;;;18.00;55.40;;;;;;5036229;28;20246;-89
2021/05/14 10:14:57;;;;;;;1.60;1.50;;;18.00;53.50;;;;;;5035072;28;20222;-89
2021/05/14 10:17:22;;;;;;;1.80;1.70;;;18.10;53.00;;;;;;5033071;28;20199;-88
2021/05/14 10:19:50;;;;;;;1.70;1.60;;;17.90;55.10;;;;;;5034945;28;20269;-89
2021/05/14 10:22:17;;;;;;;1.60;1.50;;;17.90;56.70;;;;;;5031976;28;20199;-88
2021/05/14 10:24:50;;;;;;;2.53;1.50;;;17.90;57.20;;;;;;5031666;28;20194;-89
2021/05/14 10:27:20;;;;;;;1.50;1.47;;;18.20;56.30;;;;;;5032416;28;20648;-89
2021/05/14 10:29:52;;;;;;;2.63;1.50;;;17.80;55.40;;;;;;5033871;28;20240;-89
2021/05/14 10:32:37;;;;;;;1.90;1.80;;;18.10;55.50;;;;;;5031782;28;20173;-90
2021/05/14 10:35:04;;;;;;;1.67;1.57;;;18.50;53.10;;;;;;5014791;28;20226;-89
2021/05/14 10:37:49;;;;;;;1.90;1.70;;;18.70;51.10;;;;;;4991241;28;20178;-90
2021/05/14 10:42:56;;;;;;;1.70;1.60;;;19.20;51.30;;;;;;5011657;28;20232;-89
2021/05/14 10:46:04;;;;;;;1.47;1.37;;;19.10;50.00;;;;;;5013976;28;20305;-88
2021/05/14 10:48:29;;;;;;;1.40;1.30;;;19.40;49.80;;;;;;4969985;28;20230;-89
2021/05/14 10:51:00;;;;;;;1.70;1.60;;;19.50;47.50;;;;;;4993379;28;20564;-87
2021/05/14 10:53:32;;;;;;;2.28;1.70;;;19.60;48.50;;;;;;4993074;28;20916;-89
2021/05/14 10:56:17;;;;;;;1.60;1.50;;;19.90;44.50;;;;;;4992673;28;20189;-88
2021/05/14 10:58:52;;;;;;;2.92;1.65;;;19.80;41.30;;;;;;4991825;28;20194;-88
2021/05/14 11:01:42;;;;;;;1.80;1.70;;;20.00;42.90;;;;;;5007136;28;20212;-88
2021/05/14 11:04:13;;;;;;;1.67;1.48;;;19.90;44.70;;;;;;5008803;28;20192;-88
2021/05/14 11:06:48;;;;;;;2.13;1.60;;;20.00;43.90;;;;;;5030912;28;20543;-89
2021/05/14 11:09:15;;;;;;;1.63;1.50;;;20.40;42.90;;;;;;5030724;28;20207;-89
2021/05/14 11:12:07;;;;;;;2.33;1.67;;;20.30;42.60;;;;;;5030011;28;20828;-89
2021/05/14 11:14:46;;;;;;;1.95;1.20;;;20.60;40.80;;;;;;5029930;28;20172;-88
2021/05/14 11:17:14;;;;;;;1.83;1.40;;;20.40;39.70;;;;;;5028475;28;20188;-89
2021/05/14 11:19:47;;;;;;;1.50;1.40;;;21.00;39.30;;;;;;5029831;28;20783;-89
2021/05/14 11:22:15;;;;;;;1.60;1.50;;;21.30;39.30;;;;;;5027897;28;20189;-88
2021/05/14 11:24:47;;;;;;;1.60;1.45;;;21.20;41.70;;;;;;5009372;28;20673;-89
2021/05/14 11:27:30;;;;;;;1.30;1.30;;;20.70;39.30;;;;;;5010087;28;20188;-89
2021/05/14 11:29:58;;;;;;;2.08;1.52;;;20.80;40.00;;;;;;5012660;28;20213;-89
2021/05/14 11:32:34;;;;;;;2.25;1.52;;;20.90;40.30;;;;;;5010856;28;20266;-89
2021/05/14 11:35:07;;;;;;;1.52;1.42;;;21.20;39.40;;;;;;5011481;28;20185;-89
2021/05/14 11:37:34;;;;;;;1.85;1.75;;;21.20;39.30;;;;;;5029773;28;20188;-87
2021/05/14 11:40:19;;;;;;;1.58;1.48;;;21.40;40.40;;;;;;4998286;28;20198;-88
2021/05/14 11:42:51;;;;;;;1.98;1.63;;;20.60;40.40;;;;;;5017902;28;20195;-90
2021/05/14 11:45:23;;;;;;;1.67;1.58;;;20.30;41.80;;;;;;5033682;28;20198;-90
2021/05/14 11:48:20;;;;;;;1.67;1.50;;;20.40;42.00;;;;;;5033192;28;20173;-89
2021/05/14 11:50:48;;;;;;;1.63;1.50;;;21.00;42.60;;;;;;5031521;28;20310;-89
2021/05/14 11:53:19;;;;;;;1.60;1.50;;;21.40;40.10;;;;;;5035716;28;20201;-89
2021/05/14 11:55:48;;;;;;;3.30;1.50;;;22.10;39.50;;;;;;5035874;28;20227;-89
2021/05/14 11:58:14;;;;;;;1.92;1.52;;;21.50;41.50;;;;;;5037477;28;20181;-89
2021/05/14 12:00:45;;;;;;;1.67;1.40;;;21.80;40.90;;;;;;5034310;28;20629;-90
2021/05/14 12:03:13;;;;;;;4.07;1.70;;;22.10;40.60;;;;;;5033015;28;20612;-90
2021/05/14 12:05:40;;;;;;;1.80;1.70;;;22.00;40.00;;;;;;5037700;28;20212;-90
2021/05/14 12:08:23;;;;;;;5.47;1.92;;;22.10;39.10;;;;;;5038172;28;20807;-90
2021/05/14 12:11:01;;;;;;;1.73;1.63;;;22.50;39.40;;;;;;5038089;28;20223;-90
2021/05/14 12:13:29;;;;;;;5.50;1.63;;;22.60;38.00;;;;;;5018525;28;20180;-90
2021/05/14 12:16:09;;;;;;;1.70;1.60;;;22.40;38.40;;;;;;5028495;28;20176;-91
2021/05/14 12:18:44;;;;;;;1.98;1.77;;;22.40;38.10;;;;;;5028096;28;20168;-90
2021/05/14 12:21:28;;;;;;;1.58;1.48;;;22.60;37.20;;;;;;5018091;28;20261;-91
2021/05/14 12:23:55;;;;;;;2.92;1.55;;;22.30;38.00;;;;;;5018382;28;20165;-90
2021/05/14 12:26:22;;;;;;;1.63;1.48;;;22.00;36.60;;;;;;5022072;28;20272;-91
2021/05/14 12:28:52;;;;;;;2.42;1.70;;;21.70;37.10;;;;;;5027671;28;20239;-91
2021/05/14 12:31:29;;;;;;;1.70;1.52;;;21.30;39.50;;;;;;5033950;28;20199;-92
2021/05/14 12:34:08;;;;;;;1.60;1.50;;;21.20;38.70;;;;;;5037554;28;20180;-91
2021/05/14 12:36:39;;;;;;;2.65;1.60;;;21.00;40.40;;;;;;5031563;28;20201;-91
2021/05/14 12:39:09;;;;;;;1.60;1.50;;;21.00;40.30;;;;;;5022164;28;20221;-91
2021/05/14 12:41:37;;;;;;;2.45;1.67;;;20.80;39.90;;;;;;5018768;28;20645;-91
2021/05/14 12:44:18;;;;;;;2.00;1.80;;;20.70;39.80;;;;;;5027686;28;20197;-91
2021/05/14 12:46:56;;;;;;;3.10;1.73;;;20.50;40.50;;;;;;5038676;28;20181;-91
2021/05/14 12:49:21;;;;;;;2.60;1.70;;;20.40;40.60;;;;;;5035637;28;20212;-91
2021/05/14 12:51:59;;;;;;;1.63;1.52;;;20.20;43.20;;;;;;5037083;28;20223;-91
2021/05/14 12:54:24;;;;;;;4.90;1.98;;;19.90;46.30;;;;;;5035597;28;20192;-91
2021/05/14 12:56:50;;;;;;;1.98;1.73;;;19.50;48.80;;;;;;5035474;28;20177;-90
2021/05/14 12:59:19;;;;;;;3.97;1.90;;;19.20;49.90;;;;;;5038746;28;20222;-88